sensor_id;sensor_type;location;lat;lon;timestamp;pressure;altitude;pressure_sealevel;temperature;humidity
65880;BME280;52661;51.364;6.054;2023-01-26T00:00:03;102186.69;;;-1.81;100.00
65880;BME280;52661;51.364;6.054;2023-01-26T00:02:29;102183.25;;;-1.82;100.00
65880;BME280;52661;51.364;6.054;2023-01-26T00:04:54;102188.78;;;-1.68;100.00
65880;BME280;52661;51.364;6.054;2023-01-26T00:07:19;102188.78;;;-1.68;100.00
65880;BME280;52661;51.364;6.054;2023-01-26T00:09:45;102188.00;;;-1.84;100.00
65880;BME280;52661;51.364;6.054;2023-01-26T00:12:10;102188.31;;;-1.90;100.00
65880;BME280;52661;51.364;6.054;2023-01-26T00:14:35;102180.00;;;-1.69;100.00
65880;BME280;52661;51.364;6.054;2023-01-26T00:17:14;102183.72;;;-1.60;100.00
65880;BME280;52661;51.364;6.054;2023-01-26T00:19:40;102183.47;;;-1.63;100.00
65880;BME280;52661;51.364;6.054;2023-01-26T00:22:05;102178.66;;;-1.66;100.00
65880;BME280;52661;51.364;6.054;2023-01-26T00:24:30;102179.19;;;-1.69;100.00
65880;BME280;52661;51.364;6.054;2023-01-26T00:26:56;102176.00;;;-1.66;100.00
65880;BME280;52661;51.364;6.054;2023-01-26T00:29:21;102169.66;;;-1.70;100.00
65880;BME280;52661;51.364;6.054;2023-01-26T00:31:46;102159.25;;;-1.67;100.00
65880;BME280;52661;51.364;6.054;2023-01-26T00:34:12;102165.09;;;-1.60;100.00
65880;BME280;52661;51.364;6.054;2023-01-26T00:36:37;102164.53;;;-1.62;100.00
65880;BME280;52661;51.364;6.054;2023-01-26T00:39:02;102171.22;;;-1.64;100.00
65880;BME280;52661;51.364;6.054;2023-01-26T00:41:28;102162.13;;;-1.58;100.00
65880;BME280;52661;51.364;6.054;2023-01-26T00:44:12;102152.03;;;-1.61;100.00
65880;BME280;52661;51.364;6.054;2023-01-26T00:46:37;102152.84;;;-1.61;100.00
65880;BME280;52661;51.364;6.054;2023-01-26T00:49:02;102135.56;;;-1.63;100.00
65880;BME280;52661;51.364;6.054;2023-01-26T00:51:27;102141.94;;;-1.64;100.00
65880;BME280;52661;51.364;6.054;2023-01-26T00:53:53;102126.75;;;-1.64;100.00
65880;BME280;52661;51.364;6.054;2023-01-26T00:56:18;102135.81;;;-1.70;100.00
65880;BME280;52661;51.364;6.054;2023-01-26T00:58:43;102128.66;;;-1.74;100.00
65880;BME280;52661;51.364;6.054;2023-01-26T01:01:09;102124.09;;;-1.69;100.00
65880;BME280;52661;51.364;6.054;2023-01-26T01:03:35;102119.84;;;-1.65;100.00
65880;BME280;52661;51.364;6.054;2023-01-26T01:06:00;102124.66;;;-1.67;100.00
65880;BME280;52661;51.364;6.054;2023-01-26T01:08:25;102127.88;;;-1.75;100.00
65880;BME280;52661;51.364;6.054;2023-01-26T01:11:01;102129.97;;;-1.77;100.00
65880;BME280;52661;51.364;6.054;2023-01-26T01:13:27;102119.59;;;-1.73;100.00
65880;BME280;52661;51.364;6.054;2023-01-26T01:15:52;102122.78;;;-1.71;100.00
65880;BME280;52661;51.364;6.054;2023-01-26T01:18:17;102121.41;;;-1.59;100.00
65880;BME280;52661;51.364;6.054;2023-01-26T01:20:43;102114.53;;;-1.70;100.00
65880;BME280;52661;51.364;6.054;2023-01-26T01:23:08;102109.19;;;-1.70;100.00
65880;BME280;52661;51.364;6.054;2023-01-26T01:25:33;102103.88;;;-1.65;100.00
65880;BME280;52661;51.364;6.054;2023-01-26T01:27:58;102101.72;;;-1.58;100.00
65880;BME280;52661;51.364;6.054;2023-01-26T01:30:24;102100.16;;;-1.69;100.00
65880;BME280;52661;51.364;6.054;2023-01-26T01:32:49;102104.13;;;-1.66;100.00
65880;BME280;52661;51.364;6.054;2023-01-26T01:35:15;102102.50;;;-1.57;100.00
65880;BME280;52661;51.364;6.054;2023-01-26T01:37:41;102101.97;;;-1.54;100.00
65880;BME280;52661;51.364;6.054;2023-01-26T01:40:11;102105.69;;;-1.55;100.00
65880;BME280;52661;51.364;6.054;2023-01-26T01:42:36;102104.59;;;-1.49;100.00
65880;BME280;52661;51.364;6.054;2023-01-26T01:47:55;102115.03;;;-1.58;100.00
65880;BME280;52661;51.364;6.054;2023-01-26T01:50:23;102116.88;;;-1.58;100.00
65880;BME280;52661;51.364;6.054;2023-01-26T01:52:49;102113.69;;;-1.60;100.00
65880;BME280;52661;51.364;6.054;2023-01-26T01:55:15;102110.75;;;-1.59;100.00
65880;BME280;52661;51.364;6.054;2023-01-26T01:57:48;102106.28;;;-1.63;100.00
65880;BME280;52661;51.364;6.054;2023-01-26T02:00:19;102104.69;;;-1.69;100.00
65880;BME280;52661;51.364;6.054;2023-01-26T02:02:49;102095.88;;;-1.65;100.00
65880;BME280;52661;51.364;6.054;2023-01-26T02:05:40;102093.47;;;-1.61;100.00
65880;BME280;52661;51.364;6.054;2023-01-26T02:08:08;102088.69;;;-1.64;100.00
65880;BME280;52661;51.364;6.054;2023-01-26T02:10:35;102089.25;;;-1.67;100.00
65880;BME280;52661;51.364;6.054;2023-01-26T02:13:02;102084.19;;;-1.69;100.00
65880;BME280;52661;51.364;6.054;2023-01-26T02:15:29;102072.47;;;-1.68;100.00
65880;BME280;52661;51.364;6.054;2023-01-26T02:17:55;102069.81;;;-1.68;100.00
65880;BME280;52661;51.364;6.054;2023-01-26T02:20:44;102072.97;;;-1.56;100.00
65880;BME280;52661;51.364;6.054;2023-01-26T02:23:32;102071.66;;;-1.68;100.00
65880;BME280;52661;51.364;6.054;2023-01-26T02:26:10;102064.00;;;-1.75;100.00
65880;BME280;52661;51.364;6.054;2023-01-26T02:28:38;102061.28;;;-1.70;100.00
65880;BME280;52661;51.364;6.054;2023-01-26T02:31:03;102059.97;;;-1.67;100.00
65880;BME280;52661;51.364;6.054;2023-01-26T02:33:31;102059.72;;;-1.76;100.00
65880;BME280;52661;51.364;6.054;2023-01-26T02:35:57;102068.19;;;-1.64;100.00
65880;BME280;52661;51.364;6.054;2023-01-26T02:38:26;102065.53;;;-1.64;100.00
65880;BME280;52661;51.364;6.054;2023-01-26T02:40:54;102064.50;;;-1.68;100.00
65880;BME280;52661;51.364;6.054;2023-01-26T02:43:23;102067.09;;;-1.63;100.00
65880;BME280;52661;51.364;6.054;2023-01-26T02:45:49;102067.34;;;-1.54;100.00
65880;BME280;52661;51.364;6.054;2023-01-26T02:48:14;102059.09;;;-1.58;100.00
65880;BME280;52661;51.364;6.054;2023-01-26T02:50:59;102062.03;;;-1.59;100.00
65880;BME280;52661;51.364;6.054;2023-01-26T02:53:25;102069.22;;;-1.55;100.00
65880;BME280;52661;51.364;6.054;2023-01-26T02:55:50;102069.25;;;-1.60;100.00
65880;BME280;52661;51.364;6.054;2023-01-26T02:58:16;102071.06;;;-1.55;100.00
65880;BME280;52661;51.364;6.054;2023-01-26T03:00:41;102066.00;;;-1.52;100.00
65880;BME280;52661;51.364;6.054;2023-01-26T03:03:13;102069.69;;;-1.48;100.00
65880;BME280;52661;51.364;6.054;2023-01-26T03:05:39;102062.50;;;-1.47;100.00
65880;BME280;52661;51.364;6.054;2023-01-26T03:08:05;102073.69;;;-1.45;100.00
65880;BME280;52661;51.364;6.054;2023-01-26T03:10:32;102066.50;;;-1.44;100.00
65880;BME280;52661;51.364;6.054;2023-01-26T03:12:57;102063.81;;;-1.44;100.00
65880;BME280;52661;51.364;6.054;2023-01-26T03:15:24;102052.91;;;-1.43;100.00
65880;BME280;52661;51.364;6.054;2023-01-26T03:18:13;102064.66;;;-1.49;100.00
65880;BME280;52661;51.364;6.054;2023-01-26T03:21:00;102060.34;;;-1.40;100.00
65880;BME280;52661;51.364;6.054;2023-01-26T03:23:44;102053.94;;;-1.39;100.00
65880;BME280;52661;51.364;6.054;2023-01-26T03:26:30;102050.22;;;-1.38;100.00
65880;BME280;52661;51.364;6.054;2023-01-26T03:29:13;102055.50;;;-1.33;100.00
65880;BME280;52661;51.364;6.054;2023-01-26T03:31:39;102053.13;;;-1.34;100.00
65880;BME280;52661;51.364;6.054;2023-01-26T03:34:04;102051.78;;;-1.32;100.00
65880;BME280;52661;51.364;6.054;2023-01-26T03:36:29;102058.16;;;-1.28;100.00
65880;BME280;52661;51.364;6.054;2023-01-26T03:38:55;102053.34;;;-1.26;100.00
65880;BME280;52661;51.364;6.054;2023-01-26T03:41:20;102046.38;;;-1.22;100.00
65880;BME280;52661;51.364;6.054;2023-01-26T03:44:04;102048.31;;;-1.32;100.00
65880;BME280;52661;51.364;6.054;2023-01-26T03:46:48;102046.97;;;-1.30;100.00
65880;BME280;52661;51.364;6.054;2023-01-26T03:49:32;102043.22;;;-1.24;100.00
65880;BME280;52661;51.364;6.054;2023-01-26T03:52:16;102039.47;;;-1.23;100.00
65880;BME280;52661;51.364;6.054;2023-01-26T03:55:00;102041.09;;;-1.27;100.00
65880;BME280;52661;51.364;6.054;2023-01-26T03:57:44;102037.41;;;-1.31;100.00
65880;BME280;52661;51.364;6.054;2023-01-26T04:00:10;102039.19;;;-1.21;100.00
65880;BME280;52661;51.364;6.054;2023-01-26T04:02:37;102038.94;;;-1.20;100.00
65880;BME280;52661;51.364;6.054;2023-01-26T04:05:20;102038.59;;;-1.13;100.00
65880;BME280;52661;51.364;6.054;2023-01-26T04:08:05;102038.31;;;-1.12;100.00
65880;BME280;52661;51.364;6.054;2023-01-26T04:10:52;102035.94;;;-1.13;100.00
65880;BME280;52661;51.364;6.054;2023-01-26T04:13:19;102030.63;;;-1.13;100.00
65880;BME280;52661;51.364;6.054;2023-01-26T04:16:04;102031.69;;;-1.14;100.00
65880;BME280;52661;51.364;6.054;2023-01-26T04:18:49;102029.00;;;-1.09;100.00
65880;BME280;52661;51.364;6.054;2023-01-26T04:21:33;102027.41;;;-1.10;100.00
65880;BME280;52661;51.364;6.054;2023-01-26T04:23:59;102020.22;;;-1.15;100.00
65880;BME280;52661;51.364;6.054;2023-01-26T04:26:30;102027.19;;;-1.19;100.00
65880;BME280;52661;51.364;6.054;2023-01-26T04:29:00;102015.47;;;-1.23;100.00
65880;BME280;52661;51.364;6.054;2023-01-26T04:31:26;102037.66;;;-1.27;100.00
65880;BME280;52661;51.364;6.054;2023-01-26T04:33:51;102046.13;;;-1.25;100.00
65880;BME280;52661;51.364;6.054;2023-01-26T04:36:17;102050.13;;;-1.23;100.00
65880;BME280;52661;51.364;6.054;2023-01-26T04:38:42;102045.06;;;-1.24;100.00
65880;BME280;52661;51.364;6.054;2023-01-26T04:41:07;102036.31;;;-1.30;100.00
65880;BME280;52661;51.364;6.054;2023-01-26T04:43:33;102037.91;;;-1.29;100.00
65880;BME280;52661;51.364;6.054;2023-01-26T04:46:04;102041.88;;;-1.26;100.00
65880;BME280;52661;51.364;6.054;2023-01-26T04:48:29;102040.81;;;-1.25;100.00
65880;BME280;52661;51.364;6.054;2023-01-26T04:50:57;102037.31;;;-1.21;100.00
65880;BME280;52661;51.364;6.054;2023-01-26T04:53:23;102037.84;;;-1.19;100.00
65880;BME280;52661;51.364;6.054;2023-01-26T04:55:49;102032.47;;;-1.14;100.00
65880;BME280;52661;51.364;6.054;2023-01-26T04:58:14;102029.03;;;-1.19;100.00
65880;BME280;52661;51.364;6.054;2023-01-26T05:00:39;102032.47;;;-1.14;100.00
65880;BME280;52661;51.364;6.054;2023-01-26T05:03:05;102029.78;;;-1.09;100.00
65880;BME280;52661;51.364;6.054;2023-01-26T05:05:35;102038.28;;;-1.07;100.00
65880;BME280;52661;51.364;6.054;2023-01-26T05:08:01;102036.19;;;-1.10;100.00
65880;BME280;52661;51.364;6.054;2023-01-26T05:10:26;102033.78;;;-1.11;100.00
65880;BME280;52661;51.364;6.054;2023-01-26T05:12:52;102025.22;;;-1.08;100.00
65880;BME280;52661;51.364;6.054;2023-01-26T05:15:17;102032.72;;;-1.10;100.00
65880;BME280;52661;51.364;6.054;2023-01-26T05:17:42;102032.16;;;-1.07;100.00
65880;BME280;52661;51.364;6.054;2023-01-26T05:20:08;102030.03;;;-1.05;100.00
65880;BME280;52661;51.364;6.054;2023-01-26T05:22:34;102029.47;;;-1.02;100.00
65880;BME280;52661;51.364;6.054;2023-01-26T05:25:00;102031.38;;;-1.08;100.00
65880;BME280;52661;51.364;6.054;2023-01-26T05:27:26;102027.91;;;-1.08;100.00
65880;BME280;52661;51.364;6.054;2023-01-26T05:29:51;102027.97;;;-1.13;100.00
65880;BME280;52661;51.364;6.054;2023-01-26T05:32:17;102021.25;;;-1.11;100.00
65880;BME280;52661;51.364;6.054;2023-01-26T05:34:43;102027.97;;;-1.13;100.00
65880;BME280;52661;51.364;6.054;2023-01-26T05:37:09;102030.06;;;-1.10;100.00
65880;BME280;52661;51.364;6.054;2023-01-26T05:39:34;102026.28;;;-1.04;100.00
65880;BME280;52661;51.364;6.054;2023-01-26T05:41:59;102029.47;;;-1.02;100.00
65880;BME280;52661;51.364;6.054;2023-01-26T05:44:24;102034.25;;;-0.99;100.00
65880;BME280;52661;51.364;6.054;2023-01-26T05:46:50;102028.91;;;-0.99;100.00
65880;BME280;52661;51.364;6.054;2023-01-26T05:49:16;102027.03;;;-0.98;100.00
65880;BME280;52661;51.364;6.054;2023-01-26T05:51:41;102029.75;;;-1.04;100.00
65880;BME280;52661;51.364;6.054;2023-01-26T05:54:07;102032.97;;;-1.07;100.00
65880;BME280;52661;51.364;6.054;2023-01-26T05:56:32;102037.47;;;-1.02;100.00
65880;BME280;52661;51.364;6.054;2023-01-26T05:58:57;102027.88;;;-1.03;100.00
65880;BME280;52661;51.364;6.054;2023-01-26T06:01:23;102036.59;;;-0.98;100.00
65880;BME280;52661;51.364;6.054;2023-01-26T06:03:48;102031.50;;;-0.94;100.00
65880;BME280;52661;51.364;6.054;2023-01-26T06:06:13;102032.31;;;-0.93;100.00
65880;BME280;52661;51.364;6.054;2023-01-26T06:08:38;102032.63;;;-0.95;100.00
65880;BME280;52661;51.364;6.054;2023-01-26T06:11:04;102034.75;;;-0.97;100.00
65880;BME280;52661;51.364;6.054;2023-01-26T06:13:29;102043.34;;;-1.05;100.00
65880;BME280;52661;51.364;6.054;2023-01-26T06:15:54;102045.78;;;-1.09;100.00
65880;BME280;52661;51.364;6.054;2023-01-26T06:18:20;102048.94;;;-1.07;100.00
65880;BME280;52661;51.364;6.054;2023-01-26T06:20:45;102043.31;;;-1.00;100.00
65880;BME280;52661;51.364;6.054;2023-01-26T06:23:10;102044.56;;;-0.92;100.00
65880;BME280;52661;51.364;6.054;2023-01-26T06:25:39;102050.16;;;-0.94;100.00
65880;BME280;52661;51.364;6.054;2023-01-26T06:28:05;102048.03;;;-0.92;100.00
65880;BME280;52661;51.364;6.054;2023-01-26T06:30:30;102052.53;;;-0.87;100.00
65880;BME280;52661;51.364;6.054;2023-01-26T06:32:56;102046.69;;;-0.89;100.00
65880;BME280;52661;51.364;6.054;2023-01-26T06:35:21;102038.97;;;-0.91;100.00
65880;BME280;52661;51.364;6.054;2023-01-26T06:37:48;102044.00;;;-0.89;100.00
65880;BME280;52661;51.364;6.054;2023-01-26T06:40:14;102045.03;;;-0.85;100.00
65880;BME280;52661;51.364;6.054;2023-01-26T06:42:46;102046.13;;;-0.86;100.00
65880;BME280;52661;51.364;6.054;2023-01-26T06:45:11;102050.13;;;-0.84;100.00
65880;BME280;52661;51.364;6.054;2023-01-26T06:47:36;102050.41;;;-0.90;100.00
65880;BME280;52661;51.364;6.054;2023-01-26T06:50:02;102044.00;;;-0.89;100.00
65880;BME280;52661;51.364;6.054;2023-01-26T06:52:31;102045.13;;;-0.95;100.00
65880;BME280;52661;51.364;6.054;2023-01-26T06:54:58;102048.53;;;-0.90;100.00
65880;BME280;52661;51.364;6.054;2023-01-26T06:57:24;102040.00;;;-0.87;100.00
65880;BME280;52661;51.364;6.054;2023-01-26T06:59:50;102043.22;;;-0.90;100.00
65880;BME280;52661;51.364;6.054;2023-01-26T07:02:18;102046.16;;;-0.91;100.00
65880;BME280;52661;51.364;6.054;2023-01-26T07:04:45;102050.94;;;-0.88;100.00
65880;BME280;52661;51.364;6.054;2023-01-26T07:07:10;102055.72;;;-0.85;100.00
65880;BME280;52661;51.364;6.054;2023-01-26T07:09:36;102054.88;;;-0.81;100.00
65880;BME280;52661;51.364;6.054;2023-01-26T07:12:01;102054.88;;;-0.81;100.00
65880;BME280;52661;51.364;6.054;2023-01-26T07:14:26;102057.81;;;-0.82;100.00
65880;BME280;52661;51.364;6.054;2023-01-26T07:16:52;102052.22;;;-0.81;100.00
65880;BME280;52661;51.364;6.054;2023-01-26T07:19:17;102050.06;;;-0.79;100.00
65880;BME280;52661;51.364;6.054;2023-01-26T07:21:42;102051.88;;;-0.74;100.00
65880;BME280;52661;51.364;6.054;2023-01-26T07:24:08;102051.09;;;-0.75;100.00
65880;BME280;52661;51.364;6.054;2023-01-26T07:26:33;102061.25;;;-0.77;100.00
65880;BME280;52661;51.364;6.054;2023-01-26T07:28:59;102055.94;;;-0.82;100.00
65880;BME280;52661;51.364;6.054;2023-01-26T07:31:24;102047.47;;;-0.89;100.00
65880;BME280;52661;51.364;6.054;2023-01-26T07:33:49;102051.19;;;-0.85;100.00
65880;BME280;52661;51.364;6.054;2023-01-26T07:36:15;102053.00;;;-0.80;100.00
65880;BME280;52661;51.364;6.054;2023-01-26T07:38:40;102056.97;;;-0.78;100.00
65880;BME280;52661;51.364;6.054;2023-01-26T07:41:08;102056.25;;;-0.83;100.00
65880;BME280;52661;51.364;6.054;2023-01-26T07:43:35;102062.81;;;-0.76;100.00
65880;BME280;52661;51.364;6.054;2023-01-26T07:46:01;102070.56;;;-0.79;100.00
65880;BME280;52661;51.364;6.054;2023-01-26T07:48:26;102070.81;;;-0.76;100.00
65880;BME280;52661;51.364;6.054;2023-01-26T07:50:57;102070.28;;;-0.73;100.00
65880;BME280;52661;51.364;6.054;2023-01-26T07:53:22;102066.81;;;-0.73;100.00
65880;BME280;52661;51.364;6.054;2023-01-26T07:55:49;102075.88;;;-0.74;100.00
65880;BME280;52661;51.364;6.054;2023-01-26T07:58:15;102082.50;;;-0.72;100.00
65880;BME280;52661;51.364;6.054;2023-01-26T08:00:42;102086.22;;;-0.68;100.00
65880;BME280;52661;51.364;6.054;2023-01-26T08:03:11;102086.50;;;-0.69;100.00
65880;BME280;52661;51.364;6.054;2023-01-26T08:05:37;102087.59;;;-0.70;100.00
65880;BME280;52661;51.364;6.054;2023-01-26T08:08:03;102087.84;;;-0.72;100.00
65880;BME280;52661;51.364;6.054;2023-01-26T08:10:28;102090.50;;;-0.67;100.00
65880;BME280;52661;51.364;6.054;2023-01-26T08:12:59;102089.84;;;-0.54;100.00
65880;BME280;52661;51.364;6.054;2023-01-26T08:15:25;102090.41;;;-0.57;100.00
65880;BME280;52661;51.364;6.054;2023-01-26T08:17:52;102082.94;;;-0.55;100.00
65880;BME280;52661;51.364;6.054;2023-01-26T08:20:18;102076.78;;;-0.55;100.00
65880;BME280;52661;51.364;6.054;2023-01-26T08:22:43;102084.81;;;-0.60;100.00
65880;BME280;52661;51.364;6.054;2023-01-26T08:25:09;102088.88;;;-0.68;100.00
65880;BME280;52661;51.364;6.054;2023-01-26T08:27:34;102088.31;;;-0.65;100.00
65880;BME280;52661;51.364;6.054;2023-01-26T08:30:00;102097.91;;;-0.64;100.00
65880;BME280;52661;51.364;6.054;2023-01-26T08:32:25;102095.00;;;-0.62;100.00
65880;BME280;52661;51.364;6.054;2023-01-26T08:34:50;102099.22;;;-0.61;100.00
65880;BME280;52661;51.364;6.054;2023-01-26T08:37:15;102096.78;;;-0.58;100.00
65880;BME280;52661;51.364;6.054;2023-01-26T08:39:41;102104.25;;;-0.55;100.00
65880;BME280;52661;51.364;6.054;2023-01-26T08:42:06;102092.50;;;-0.54;100.00
65880;BME280;52661;51.364;6.054;2023-01-26T08:44:31;102095.97;;;-0.53;100.00
65880;BME280;52661;51.364;6.054;2023-01-26T08:46:57;102093.28;;;-0.53;100.00
65880;BME280;52661;51.364;6.054;2023-01-26T08:49:22;102098.13;;;-0.55;100.00
65880;BME280;52661;51.364;6.054;2023-01-26T08:51:47;102093.59;;;-0.55;100.00
65880;BME280;52661;51.364;6.054;2023-01-26T08:54:13;102097.31;;;-0.56;100.00
65880;BME280;52661;51.364;6.054;2023-01-26T08:56:38;102097.81;;;-0.54;100.00
65880;BME280;52661;51.364;6.054;2023-01-26T08:59:03;102106.38;;;-0.52;100.00
65880;BME280;52661;51.364;6.054;2023-01-26T09:01:29;102096.25;;;-0.55;100.00
65880;BME280;52661;51.364;6.054;2023-01-26T09:03:54;102099.66;;;-0.49;100.00
65880;BME280;52661;51.364;6.054;2023-01-26T09:06:20;102107.41;;;-0.47;100.00
65880;BME280;52661;51.364;6.054;2023-01-26T09:08:46;102092.69;;;-0.45;100.00
65880;BME280;52661;51.364;6.054;2023-01-26T09:11:11;102104.97;;;-0.44;100.00
65880;BME280;52661;51.364;6.054;2023-01-26T09:13:37;102106.06;;;-0.50;100.00
65880;BME280;52661;51.364;6.054;2023-01-26T09:16:06;102112.44;;;-0.46;100.00
65880;BME280;52661;51.364;6.054;2023-01-26T09:18:32;102111.88;;;-0.43;100.00
65880;BME280;52661;51.364;6.054;2023-01-26T09:21:02;102112.09;;;-0.39;100.00
65880;BME280;52661;51.364;6.054;2023-01-26T09:23:27;102115.06;;;-0.41;100.00
65880;BME280;52661;51.364;6.054;2023-01-26T09:25:53;102112.91;;;-0.39;100.00
65880;BME280;52661;51.364;6.054;2023-01-26T09:28:18;102114.53;;;-0.43;100.00
65880;BME280;52661;51.364;6.054;2023-01-26T09:30:43;102116.13;;;-0.42;100.00
65880;BME280;52661;51.364;6.054;2023-01-26T09:33:09;102109.19;;;-0.43;100.00
65880;BME280;52661;51.364;6.054;2023-01-26T09:35:34;102104.09;;;-0.39;100.00
65880;BME280;52661;51.364;6.054;2023-01-26T09:37:59;102116.09;;;-0.37;100.00
65880;BME280;52661;51.364;6.054;2023-01-26T09:40:35;102108.84;;;-0.31;100.00
65880;BME280;52661;51.364;6.054;2023-01-26T09:43:15;102120.03;;;-0.29;100.00
65880;BME280;52661;51.364;6.054;2023-01-26T09:46:52;102127.75;;;-0.28;100.00
65880;BME280;52661;51.364;6.054;2023-01-26T09:49:09;102120.03;;;-0.29;100.00
65880;BME280;52661;51.364;6.054;2023-01-26T09:51:45;102111.25;;;-0.30;100.00
65880;BME280;52661;51.364;6.054;2023-01-26T09:54:42;102109.38;;;-0.29;100.00
65880;BME280;52661;51.364;6.054;2023-01-26T09:57:14;102112.03;;;-0.29;100.00
65880;BME280;52661;51.364;6.054;2023-01-26T10:04:41;102109.25;;;-0.19;100.00
65880;BME280;52661;51.364;6.054;2023-01-26T10:07:11;102109.75;;;-0.17;100.00
65880;BME280;52661;51.364;6.054;2023-01-26T10:09:39;102115.66;;;-0.20;100.00
65880;BME280;52661;51.364;6.054;2023-01-26T10:14:40;102101.88;;;-0.27;100.00
65880;BME280;52661;51.364;6.054;2023-01-26T10:17:19;102103.63;;;-0.18;100.00
65880;BME280;52661;51.364;6.054;2023-01-26T10:19:51;102106.53;;;-0.14;100.00
65880;BME280;52661;51.364;6.054;2023-01-26T10:22:24;102105.47;;;-0.13;100.00
65880;BME280;52661;51.364;6.054;2023-01-26T10:24:56;102104.66;;;-0.14;100.00
65880;BME280;52661;51.364;6.054;2023-01-26T10:27:21;102106.31;;;-0.18;100.00
65880;BME280;52661;51.364;6.054;2023-01-26T10:29:47;102101.50;;;-0.16;100.00
65880;BME280;52661;51.364;6.054;2023-01-26T10:32:13;102096.66;;;-0.14;100.00
65880;BME280;52661;51.364;6.054;2023-01-26T10:34:40;102094.84;;;-0.18;100.00
65880;BME280;52661;51.364;6.054;2023-01-26T10:37:25;102088.94;;;-0.15;100.00
65880;BME280;52661;51.364;6.054;2023-01-26T10:40:05;102095.59;;;-0.13;100.00
65880;BME280;52661;51.364;6.054;2023-01-26T10:42:35;102096.09;;;-0.11;100.00
65880;BME280;52661;51.364;6.054;2023-01-26T10:48:20;102099.75;;;-0.02;100.00
65880;BME280;52661;51.364;6.054;2023-01-26T10:50:48;102112.00;;;-0.01;100.00
65880;BME280;52661;51.364;6.054;2023-01-26T10:53:22;102111.72;;;0.01;100.00
65880;BME280;52661;51.364;6.054;2023-01-26T10:58:49;102102.13;;;0.00;100.00
65880;BME280;52661;51.364;6.054;2023-01-26T11:01:17;102094.13;;;0.00;100.00
65880;BME280;52661;51.364;6.054;2023-01-26T11:04:01;102101.84;;;0.02;100.00
65880;BME280;52661;51.364;6.054;2023-01-26T11:06:29;102101.84;;;0.02;100.00
65880;BME280;52661;51.364;6.054;2023-01-26T11:09:25;102096.00;;;-0.01;100.00
65880;BME280;52661;51.364;6.054;2023-01-26T11:11:57;102100.19;;;0.06;100.00
65880;BME280;52661;51.364;6.054;2023-01-26T11:14:23;102096.47;;;0.07;100.00
65880;BME280;52661;51.364;6.054;2023-01-26T11:17:15;102096.94;;;0.09;100.00
65880;BME280;52661;51.364;6.054;2023-01-26T11:22:28;102095.09;;;0.09;100.00
65880;BME280;52661;51.364;6.054;2023-01-26T11:30:35;102092.91;;;0.11;100.00
65880;BME280;52661;51.364;6.054;2023-01-26T11:33:28;102091.84;;;0.12;100.00
65880;BME280;52661;51.364;6.054;2023-01-26T11:36:19;102091.03;;;0.12;100.00
65880;BME280;52661;51.364;6.054;2023-01-26T11:39:02;102087.31;;;0.13;100.00
65880;BME280;52661;51.364;6.054;2023-01-26T11:41:47;102098.25;;;0.11;100.00
65880;BME280;52661;51.364;6.054;2023-01-26T11:48:08;102085.66;;;0.17;100.00
65880;BME280;52661;51.364;6.054;2023-01-26T11:50:16;102081.13;;;0.17;100.00
65880;BME280;52661;51.364;6.054;2023-01-26T11:58:30;102072.47;;;0.25;100.00
65880;BME280;52661;51.364;6.054;2023-01-26T12:01:00;102072.41;;;0.30;100.00
65880;BME280;52661;51.364;6.054;2023-01-26T12:03:48;102068.09;;;0.34;100.00
65880;BME280;52661;51.364;6.054;2023-01-26T12:08:46;102068.03;;;0.39;100.00
65880;BME280;52661;51.364;6.054;2023-01-26T12:11:22;102058.13;;;0.40;100.00
65880;BME280;52661;51.364;6.054;2023-01-26T12:14:01;102055.16;;;0.41;100.00
65880;BME280;52661;51.364;6.054;2023-01-26T12:16:52;102052.50;;;0.41;100.00
65880;BME280;52661;51.364;6.054;2023-01-26T12:22:10;102043.91;;;0.44;100.00
65880;BME280;52661;51.364;6.054;2023-01-26T12:24:40;102047.91;;;0.47;100.00
65880;BME280;52661;51.364;6.054;2023-01-26T12:27:18;102037.72;;;0.49;100.00
65880;BME280;52661;51.364;6.054;2023-01-26T12:29:53;102037.13;;;0.52;100.00
65880;BME280;52661;51.364;6.054;2023-01-26T12:32:21;102039.53;;;0.54;100.00
65880;BME280;52661;51.364;6.054;2023-01-26T12:34:47;102039.22;;;0.55;100.00
65880;BME280;52661;51.364;6.054;2023-01-26T12:37:26;102046.66;;;0.58;100.00
65880;BME280;52661;51.364;6.054;2023-01-26T12:43:01;102038.31;;;0.65;100.00
65880;BME280;52661;51.364;6.054;2023-01-26T12:45:33;102030.19;;;0.70;100.00
65880;BME280;52661;51.364;6.054;2023-01-26T12:48:17;102030.13;;;0.75;100.00
65880;BME280;52661;51.364;6.054;2023-01-26T12:50:51;102029.75;;;0.81;100.00
65880;BME280;52661;51.364;6.054;2023-01-26T12:53:25;102034.16;;;0.91;100.00
65880;BME280;52661;51.364;6.054;2023-01-26T12:56:12;102032.41;;;1.00;100.00
65880;BME280;52661;51.364;6.054;2023-01-26T12:58:43;102033.03;;;1.11;100.00
65880;BME280;52661;51.364;6.054;2023-01-26T13:01:15;102020.75;;;1.10;100.00
65880;BME280;52661;51.364;6.054;2023-01-26T13:03:50;102020.88;;;1.18;100.00
65880;BME280;52661;51.364;6.054;2023-01-26T13:06:26;102014.75;;;1.18;100.00
65880;BME280;52661;51.364;6.054;2023-01-26T13:11:45;102013.97;;;1.31;100.00
65880;BME280;52661;51.364;6.054;2023-01-26T13:24:55;102007.69;;;1.68;100.00
65880;BME280;52661;51.364;6.054;2023-01-26T13:27:33;101995.00;;;1.73;100.00
65880;BME280;52661;51.364;6.054;2023-01-26T13:29:59;102009.16;;;1.74;100.00
65880;BME280;52661;51.364;6.054;2023-01-26T13:34:55;102001.66;;;1.76;100.00
65880;BME280;52661;51.364;6.054;2023-01-26T13:37:33;102007.88;;;1.85;100.00
65880;BME280;52661;51.364;6.054;2023-01-26T13:43:14;102015.13;;;1.98;100.00
65880;BME280;52661;51.364;6.054;2023-01-26T13:45:48;102008.75;;;2.08;100.00
65880;BME280;52661;51.364;6.054;2023-01-26T13:48:31;102009.47;;;2.13;100.00
65880;BME280;52661;51.364;6.054;2023-01-26T13:51:00;102011.41;;;2.21;100.00
65880;BME280;52661;51.364;6.054;2023-01-26T13:55:55;102003.56;;;2.25;100.00